sensor_id;sensor_type;location;lat;lon;timestamp;pressure;altitude;pressure_sealevel;temperature;humidity
60373;BME280;46216;52.220;5.134;2022-08-18T00:02:25;101564.22;;;20.02;100.00
60373;BME280;46216;52.220;5.134;2022-08-18T00:04:52;101560.13;;;19.98;100.00
60373;BME280;46216;52.220;5.134;2022-08-18T00:07:21;101560.28;;;19.96;100.00
60373;BME280;46216;52.220;5.134;2022-08-18T00:09:48;101561.84;;;19.99;100.00
60373;BME280;46216;52.220;5.134;2022-08-18T00:12:17;101566.22;;;20.00;100.00
60373;BME280;46216;52.220;5.134;2022-08-18T00:14:44;101562.53;;;20.01;100.00
60373;BME280;46216;52.220;5.134;2022-08-18T00:17:11;101553.72;;;19.99;100.00
60373;BME280;46216;52.220;5.134;2022-08-18T00:19:37;101549.31;;;19.98;100.00
60373;BME280;46216;52.220;5.134;2022-08-18T00:22:03;101539.34;;;19.98;100.00
60373;BME280;46216;52.220;5.134;2022-08-18T00:24:28;101537.09;;;19.94;100.00
60373;BME280;46216;52.220;5.134;2022-08-18T00:26:55;101539.78;;;19.94;100.00
60373;BME280;46216;52.220;5.134;2022-08-18T00:29:20;101533.00;;;19.90;100.00
60373;BME280;46216;52.220;5.134;2022-08-18T00:31:46;101526.19;;;19.85;100.00
60373;BME280;46216;52.220;5.134;2022-08-18T00:34:11;101535.03;;;19.88;100.00
60373;BME280;46216;52.220;5.134;2022-08-18T00:36:36;101534.19;;;19.87;100.00
60373;BME280;46216;52.220;5.134;2022-08-18T00:39:02;101540.13;;;19.91;100.00
60373;BME280;46216;52.220;5.134;2022-08-18T00:41:28;101542.13;;;19.89;100.00
60373;BME280;46216;52.220;5.134;2022-08-18T00:43:54;101539.09;;;19.92;100.00
60373;BME280;46216;52.220;5.134;2022-08-18T00:46:28;101537.19;;;19.84;100.00
60373;BME280;46216;52.220;5.134;2022-08-18T00:48:55;101537.03;;;19.85;100.00
60373;BME280;46216;52.220;5.134;2022-08-18T00:51:29;101532.47;;;19.86;100.00
60373;BME280;46216;52.220;5.134;2022-08-18T00:56:27;101537.50;;;19.81;100.00
60373;BME280;46216;52.220;5.134;2022-08-18T00:59:02;101546.59;;;19.80;100.00
60373;BME280;46216;52.220;5.134;2022-08-18T01:01:31;101541.34;;;19.78;100.00
60373;BME280;46216;52.220;5.134;2022-08-18T01:04:02;101536.56;;;19.72;100.00
60373;BME280;46216;52.220;5.134;2022-08-18T01:06:45;101542.28;;;19.69;100.00
60373;BME280;46216;52.220;5.134;2022-08-18T01:09:12;101561.09;;;19.61;100.00
60373;BME280;46216;52.220;5.134;2022-08-18T01:11:38;101562.78;;;19.62;100.00
60373;BME280;46216;52.220;5.134;2022-08-18T01:14:07;101565.38;;;19.64;100.00
60373;BME280;46216;52.220;5.134;2022-08-18T01:16:32;101560.94;;;19.62;100.00
60373;BME280;46216;52.220;5.134;2022-08-18T01:19:18;101558.69;;;19.58;100.00
60373;BME280;46216;52.220;5.134;2022-08-18T01:22:12;101556.75;;;19.50;100.00
60373;BME280;46216;52.220;5.134;2022-08-18T01:24:39;101561.88;;;19.53;100.00
60373;BME280;46216;52.220;5.134;2022-08-18T01:27:24;101563.69;;;19.53;100.00
60373;BME280;46216;52.220;5.134;2022-08-18T01:29:50;101561.63;;;19.47;100.00
60373;BME280;46216;52.220;5.134;2022-08-18T01:32:19;101559.59;;;19.49;100.00
60373;BME280;46216;52.220;5.134;2022-08-18T01:34:50;101568.31;;;19.43;100.00
60373;BME280;46216;52.220;5.134;2022-08-18T01:37:18;101563.78;;;19.43;100.00
60373;BME280;46216;52.220;5.134;2022-08-18T01:39:44;101568.66;;;19.40;100.00
60373;BME280;46216;52.220;5.134;2022-08-18T01:42:11;101556.94;;;19.39;100.00
60373;BME280;46216;52.220;5.134;2022-08-18T01:44:37;101560.97;;;19.35;100.00
60373;BME280;46216;52.220;5.134;2022-08-18T01:47:06;101561.50;;;19.38;100.00
60373;BME280;46216;52.220;5.134;2022-08-18T01:49:32;101557.13;;;19.37;100.00
60373;BME280;46216;52.220;5.134;2022-08-18T01:51:57;101555.56;;;19.35;100.00
60373;BME280;46216;52.220;5.134;2022-08-18T01:54:22;101554.56;;;19.36;100.00
60373;BME280;46216;52.220;5.134;2022-08-18T01:56:47;101558.97;;;19.37;100.00
60373;BME280;46216;52.220;5.134;2022-08-18T01:59:13;101558.44;;;19.33;100.00
60373;BME280;46216;52.220;5.134;2022-08-18T02:01:41;101553.88;;;19.34;100.00
60373;BME280;46216;52.220;5.134;2022-08-18T02:04:07;101560.13;;;19.34;100.00
60373;BME280;46216;52.220;5.134;2022-08-18T02:06:33;101562.44;;;19.29;100.00
60373;BME280;46216;52.220;5.134;2022-08-18T02:08:58;101565.56;;;19.25;100.00
60373;BME280;46216;52.220;5.134;2022-08-18T02:11:24;101573.25;;;19.29;100.00
60373;BME280;46216;52.220;5.134;2022-08-18T02:13:49;101570.56;;;19.29;100.00
60373;BME280;46216;52.220;5.134;2022-08-18T02:16:14;101572.38;;;19.29;100.00
60373;BME280;46216;52.220;5.134;2022-08-18T02:18:41;101583.91;;;19.31;100.00
60373;BME280;46216;52.220;5.134;2022-08-18T02:21:12;101578.78;;;19.28;100.00
60373;BME280;46216;52.220;5.134;2022-08-18T02:23:39;101583.34;;;19.27;100.00
60373;BME280;46216;52.220;5.134;2022-08-18T02:26:08;101581.78;;;19.25;100.00
60373;BME280;46216;52.220;5.134;2022-08-18T02:28:33;101586.34;;;19.24;100.00
60373;BME280;46216;52.220;5.134;2022-08-18T02:31:07;101575.72;;;19.23;100.00
60373;BME280;46216;52.220;5.134;2022-08-18T02:33:33;101579.81;;;19.27;100.00
60373;BME280;46216;52.220;5.134;2022-08-18T02:35:59;101584.50;;;19.25;100.00
60373;BME280;46216;52.220;5.134;2022-08-18T02:38:24;101573.84;;;19.23;100.00
60373;BME280;46216;52.220;5.134;2022-08-18T02:40:57;101570.13;;;19.24;100.00
60373;BME280;46216;52.220;5.134;2022-08-18T02:43:23;101577.22;;;19.25;100.00
60373;BME280;46216;52.220;5.134;2022-08-18T02:45:48;101573.00;;;19.23;100.00
60373;BME280;46216;52.220;5.134;2022-08-18T02:48:14;101587.50;;;19.22;100.00
60373;BME280;46216;52.220;5.134;2022-08-18T02:50:39;101574.69;;;19.24;100.00
60373;BME280;46216;52.220;5.134;2022-08-18T02:53:14;101583.47;;;19.26;100.00
60373;BME280;46216;52.220;5.134;2022-08-18T02:55:46;101577.53;;;19.22;100.00
60373;BME280;46216;52.220;5.134;2022-08-18T02:58:11;101584.66;;;19.23;100.00
60373;BME280;46216;52.220;5.134;2022-08-18T03:00:37;101590.91;;;19.24;100.00
60373;BME280;46216;52.220;5.134;2022-08-18T03:03:03;101591.75;;;19.24;100.00
60373;BME280;46216;52.220;5.134;2022-08-18T03:05:28;101590.06;;;19.23;100.00
60373;BME280;46216;52.220;5.134;2022-08-18T03:07:54;101592.78;;;19.23;100.00
60373;BME280;46216;52.220;5.134;2022-08-18T03:10:20;101591.75;;;19.24;100.00
60373;BME280;46216;52.220;5.134;2022-08-18T03:12:45;101600.72;;;19.25;100.00
60373;BME280;46216;52.220;5.134;2022-08-18T03:15:11;101593.19;;;19.19;100.00
60373;BME280;46216;52.220;5.134;2022-08-18T03:17:37;101596.59;;;19.21;100.00
60373;BME280;46216;52.220;5.134;2022-08-18T03:20:04;101597.47;;;19.21;100.00
60373;BME280;46216;52.220;5.134;2022-08-18T03:22:29;101599.16;;;19.22;100.00
60373;BME280;46216;52.220;5.134;2022-08-18T03:24:56;101606.28;;;19.23;100.00
60373;BME280;46216;52.220;5.134;2022-08-18T03:27:22;101603.16;;;19.18;100.00
60373;BME280;46216;52.220;5.134;2022-08-18T03:29:47;101605.19;;;19.16;100.00
60373;BME280;46216;52.220;5.134;2022-08-18T03:32:14;101603.63;;;19.13;100.00
60373;BME280;46216;52.220;5.134;2022-08-18T03:34:39;101603.75;;;19.12;100.00
60373;BME280;46216;52.220;5.134;2022-08-18T03:37:06;101600.06;;;19.13;100.00
60373;BME280;46216;52.220;5.134;2022-08-18T03:39:32;101609.03;;;19.13;100.00
60373;BME280;46216;52.220;5.134;2022-08-18T03:41:57;101610.75;;;19.05;100.00
60373;BME280;46216;52.220;5.134;2022-08-18T03:44:23;101607.75;;;19.08;100.00
60373;BME280;46216;52.220;5.134;2022-08-18T03:46:49;101602.91;;;19.11;100.00
60373;BME280;46216;52.220;5.134;2022-08-18T03:49:15;101594.50;;;19.14;100.00
60373;BME280;46216;52.220;5.134;2022-08-18T03:51:43;101601.03;;;19.12;100.00
60373;BME280;46216;52.220;5.134;2022-08-18T03:54:10;101604.63;;;19.12;100.00
60373;BME280;46216;52.220;5.134;2022-08-18T03:56:37;101601.75;;;19.14;100.00
60373;BME280;46216;52.220;5.134;2022-08-18T03:59:16;101615.97;;;19.16;100.00
60373;BME280;46216;52.220;5.134;2022-08-18T04:01:42;101613.66;;;19.21;100.00
60373;BME280;46216;52.220;5.134;2022-08-18T04:04:12;101606.03;;;19.17;100.00
60373;BME280;46216;52.220;5.134;2022-08-18T04:06:50;101605.31;;;19.14;100.00
60373;BME280;46216;52.220;5.134;2022-08-18T04:09:19;101606.88;;;19.17;100.00
60373;BME280;46216;52.220;5.134;2022-08-18T04:11:45;101600.63;;;19.17;100.00
60373;BME280;46216;52.220;5.134;2022-08-18T04:14:12;101596.06;;;19.17;100.00
60373;BME280;46216;52.220;5.134;2022-08-18T04:16:38;101594.06;;;19.19;100.00
60373;BME280;46216;52.220;5.134;2022-08-18T04:19:04;101594.63;;;19.23;100.00
60373;BME280;46216;52.220;5.134;2022-08-18T04:21:33;101597.31;;;19.23;100.00
60373;BME280;46216;52.220;5.134;2022-08-18T04:23:59;101604.25;;;19.25;100.00
60373;BME280;46216;52.220;5.134;2022-08-18T04:26:31;101593.44;;;19.25;100.00
60373;BME280;46216;52.220;5.134;2022-08-18T04:28:56;101594.91;;;19.20;100.00
60373;BME280;46216;52.220;5.134;2022-08-18T04:31:23;101594.06;;;19.19;100.00
60373;BME280;46216;52.220;5.134;2022-08-18T04:33:50;101591.66;;;19.16;100.00
60373;BME280;46216;52.220;5.134;2022-08-18T04:36:16;101597.06;;;19.16;100.00
60373;BME280;46216;52.220;5.134;2022-08-18T04:38:42;101594.38;;;19.16;100.00
60373;BME280;46216;52.220;5.134;2022-08-18T04:41:08;101591.50;;;19.18;100.00
60373;BME280;46216;52.220;5.134;2022-08-18T04:43:34;101594.06;;;19.19;100.00
60373;BME280;46216;52.220;5.134;2022-08-18T04:45:59;101588.97;;;19.16;100.00
60373;BME280;46216;52.220;5.134;2022-08-18T04:48:30;101589.25;;;19.13;100.00
60373;BME280;46216;52.220;5.134;2022-08-18T04:51:01;101591.13;;;19.12;100.00
60373;BME280;46216;52.220;5.134;2022-08-18T04:53:27;101594.66;;;19.13;100.00
60373;BME280;46216;52.220;5.134;2022-08-18T04:56:18;101598.66;;;19.09;100.00
60373;BME280;46216;52.220;5.134;2022-08-18T04:59:01;101595.97;;;19.09;100.00
60373;BME280;46216;52.220;5.134;2022-08-18T05:01:28;101592.84;;;19.04;100.00
60373;BME280;46216;52.220;5.134;2022-08-18T05:03:56;101606.34;;;19.04;100.00
60373;BME280;46216;52.220;5.134;2022-08-18T05:06:23;101598.97;;;19.06;100.00
60373;BME280;46216;52.220;5.134;2022-08-18T05:09:08;101598.41;;;19.02;100.00
60373;BME280;46216;52.220;5.134;2022-08-18T05:11:34;101607.19;;;19.04;100.00
60373;BME280;46216;52.220;5.134;2022-08-18T05:14:03;101612.91;;;19.01;100.00
60373;BME280;46216;52.220;5.134;2022-08-18T05:16:29;101612.59;;;19.04;100.00
60373;BME280;46216;52.220;5.134;2022-08-18T05:19:04;101605.34;;;19.05;100.00
60373;BME280;46216;52.220;5.134;2022-08-18T05:21:29;101613.16;;;19.08;100.00
60373;BME280;46216;52.220;5.134;2022-08-18T05:23:55;101607.47;;;19.11;100.00
60373;BME280;46216;52.220;5.134;2022-08-18T05:26:21;101608.84;;;19.15;100.00
60373;BME280;46216;52.220;5.134;2022-08-18T05:28:46;101608.00;;;19.14;100.00
60373;BME280;46216;52.220;5.134;2022-08-18T05:31:15;101611.44;;;19.17;100.00
60373;BME280;46216;52.220;5.134;2022-08-18T05:33:41;101608.84;;;19.15;100.00
60373;BME280;46216;52.220;5.134;2022-08-18T05:36:46;101608.84;;;19.15;100.00
60373;BME280;46216;52.220;5.134;2022-08-18T05:42:04;101600.88;;;19.23;100.00
60373;BME280;46216;52.220;5.134;2022-08-18T05:44:34;101611.09;;;19.29;100.00
60373;BME280;46216;52.220;5.134;2022-08-18T05:47:24;101609.97;;;19.22;100.00
60373;BME280;46216;52.220;5.134;2022-08-18T05:49:51;101614.47;;;19.31;100.00
60373;BME280;46216;52.220;5.134;2022-08-18T05:52:21;101613.47;;;19.32;100.00
60373;BME280;46216;52.220;5.134;2022-08-18T05:54:55;101606.91;;;19.35;100.00
60373;BME280;46216;52.220;5.134;2022-08-18T05:57:43;101619.00;;;19.41;100.00
60373;BME280;46216;52.220;5.134;2022-08-18T06:00:10;101621.09;;;19.47;100.00
60373;BME280;46216;52.220;5.134;2022-08-18T06:02:56;101609.28;;;19.48;100.00
60373;BME280;46216;52.220;5.134;2022-08-18T06:05:30;101607.50;;;19.56;100.00
60373;BME280;46216;52.220;5.134;2022-08-18T06:08:35;101603.28;;;19.54;100.00
60373;BME280;46216;52.220;5.134;2022-08-18T06:11:02;101603.50;;;19.60;100.00
60373;BME280;46216;52.220;5.134;2022-08-18T06:13:28;101612.59;;;19.69;100.00
60373;BME280;46216;52.220;5.134;2022-08-18T06:27:24;101600.63;;;19.90;100.00
60373;BME280;46216;52.220;5.134;2022-08-18T06:33:05;101598.31;;;19.95;100.00
60373;BME280;46216;52.220;5.134;2022-08-18T06:36:02;101600.41;;;20.01;100.00
60373;BME280;46216;52.220;5.134;2022-08-18T06:43:35;101614.25;;;20.16;100.00
60373;BME280;46216;52.220;5.134;2022-08-18T06:46:08;101609.69;;;20.16;100.00
60373;BME280;46216;52.220;5.134;2022-08-18T06:48:41;101610.38;;;20.18;100.00
60373;BME280;46216;52.220;5.134;2022-08-18T06:51:09;101610.13;;;20.29;100.00
60373;BME280;46216;52.220;5.134;2022-08-18T07:01:44;101619.72;;;20.42;100.00
60373;BME280;46216;52.220;5.134;2022-08-18T07:04:34;101625.13;;;20.42;100.00
60373;BME280;46216;52.220;5.134;2022-08-18T07:07:23;101625.38;;;20.48;100.00
60373;BME280;46216;52.220;5.134;2022-08-18T07:09:53;101622.78;;;20.47;100.00
60373;BME280;46216;52.220;5.134;2022-08-18T07:12:22;101623.50;;;20.49;100.00
60373;BME280;46216;52.220;5.134;2022-08-18T07:14:53;101620.94;;;20.47;100.00
60373;BME280;46216;52.220;5.134;2022-08-18T07:17:30;101620.78;;;20.49;100.00
60373;BME280;46216;52.220;5.134;2022-08-18T07:20:05;101627.63;;;20.53;100.00
60373;BME280;46216;52.220;5.134;2022-08-18T07:23:00;101629.31;;;20.54;100.00
60373;BME280;46216;52.220;5.134;2022-08-18T07:25:41;101633.03;;;20.53;100.00
60373;BME280;46216;52.220;5.134;2022-08-18T07:30:52;101633.78;;;20.63;100.00
60373;BME280;46216;52.220;5.134;2022-08-18T07:33:31;101636.19;;;20.66;100.00
60373;BME280;46216;52.220;5.134;2022-08-18T07:36:00;101640.28;;;20.70;100.00
60373;BME280;46216;52.220;5.134;2022-08-18T07:38:37;101643.03;;;20.78;100.00
60373;BME280;46216;52.220;5.134;2022-08-18T07:41:12;101644.78;;;20.88;100.00
60373;BME280;46216;52.220;5.134;2022-08-18T07:43:45;101642.41;;;20.85;100.00
60373;BME280;46216;52.220;5.134;2022-08-18T07:49:22;101651.13;;;20.96;100.00
60373;BME280;46216;52.220;5.134;2022-08-18T07:52:11;101660.13;;;21.05;100.00
60373;BME280;46216;52.220;5.134;2022-08-18T07:55:03;101651.16;;;21.05;100.00
60373;BME280;46216;52.220;5.134;2022-08-18T07:57:54;101657.59;;;21.03;100.00
60373;BME280;46216;52.220;5.134;2022-08-18T08:00:29;101653.88;;;21.05;100.00
60373;BME280;46216;52.220;5.134;2022-08-18T08:06:08;101662.94;;;21.21;100.00
60373;BME280;46216;52.220;5.134;2022-08-18T08:08:58;101668.41;;;21.30;100.00
60373;BME280;46216;52.220;5.134;2022-08-18T08:14:18;101662.38;;;21.36;100.00
60373;BME280;46216;52.220;5.134;2022-08-18T08:17:02;101663.66;;;21.23;100.00
60373;BME280;46216;52.220;5.134;2022-08-18T08:19:33;101657.91;;;21.26;100.00
60373;BME280;46216;52.220;5.134;2022-08-18T08:22:16;101653.66;;;21.24;100.00
60373;BME280;46216;52.220;5.134;2022-08-18T08:25:13;101651.59;;;21.26;100.00
60373;BME280;46216;52.220;5.134;2022-08-18T08:28:07;101663.06;;;21.38;100.00
60373;BME280;46216;52.220;5.134;2022-08-18T08:30:45;101660.56;;;21.44;100.00
60373;BME280;46216;52.220;5.134;2022-08-18T08:33:26;101654.28;;;21.44;100.00
60373;BME280;46216;52.220;5.134;2022-08-18T08:35:55;101653.91;;;21.39;100.00
60373;BME280;46216;52.220;5.134;2022-08-18T08:41:07;101643.56;;;21.34;100.00
60373;BME280;46216;52.220;5.134;2022-08-18T08:43:41;101645.13;;;21.37;100.00
60373;BME280;46216;52.220;5.134;2022-08-18T08:46:12;101640.22;;;21.40;100.00
60373;BME280;46216;52.220;5.134;2022-08-18T08:48:47;101645.25;;;21.35;100.00
60373;BME280;46216;52.220;5.134;2022-08-18T08:51:37;101637.59;;;21.31;100.00
60373;BME280;46216;52.220;5.134;2022-08-18T08:54:19;101639.84;;;21.35;100.00
60373;BME280;46216;52.220;5.134;2022-08-18T08:56:49;101634.09;;;21.38;100.00
60373;BME280;46216;52.220;5.134;2022-08-18T08:59:17;101635.66;;;21.49;100.00
60373;BME280;46216;52.220;5.134;2022-08-18T09:01:55;101634.81;;;21.57;100.00
60373;BME280;46216;52.220;5.134;2022-08-18T09:10:11;101623.50;;;21.69;100.00
60373;BME280;46216;52.220;5.134;2022-08-18T09:16:14;101641.13;;;21.65;100.00
60373;BME280;46216;52.220;5.134;2022-08-18T09:19:29;101643.22;;;21.80;100.00
60373;BME280;46216;52.220;5.134;2022-08-18T09:24:27;101661.56;;;21.94;100.00
60373;BME280;46216;52.220;5.134;2022-08-18T09:38:10;101647.00;;;21.95;100.00
60373;BME280;46216;52.220;5.134;2022-08-18T09:41:03;101650.91;;;22.09;100.00
60373;BME280;46216;52.220;5.134;2022-08-18T09:51:51;101650.31;;;22.39;100.00
60373;BME280;46216;52.220;5.134;2022-08-18T10:02:08;101633.78;;;22.82;100.00
60373;BME280;46216;52.220;5.134;2022-08-18T10:07:27;101608.81;;;22.95;100.00
60373;BME280;46216;52.220;5.134;2022-08-18T10:13:21;101597.72;;;23.12;100.00
60373;BME280;46216;52.220;5.134;2022-08-18T10:16:21;101608.94;;;23.18;100.00
60373;BME280;46216;52.220;5.134;2022-08-18T10:19:17;101593.84;;;23.07;100.00
60373;BME280;46216;52.220;5.134;2022-08-18T10:24:28;101598.44;;;22.82;100.00
60373;BME280;46216;52.220;5.134;2022-08-18T10:34:39;101600.50;;;22.96;100.00
60373;BME280;46216;52.220;5.134;2022-08-18T10:39:55;101606.16;;;23.26;100.00
60373;BME280;46216;52.220;5.134;2022-08-18T10:42:30;101612.94;;;23.30;100.00
60373;BME280;46216;52.220;5.134;2022-08-18T10:47:35;101589.41;;;23.45;100.00
60373;BME280;46216;52.220;5.134;2022-08-18T10:50:20;101574.84;;;23.38;100.00
60373;BME280;46216;52.220;5.134;2022-08-18T10:53:23;101588.97;;;23.65;100.00
60373;BME280;46216;52.220;5.134;2022-08-18T11:01:29;101604.63;;;23.63;100.00
60373;BME280;46216;52.220;5.134;2022-08-18T11:04:21;101603.31;;;23.90;100.00
60373;BME280;46216;52.220;5.134;2022-08-18T11:06:50;101602.41;;;23.97;100.00
60373;BME280;46216;52.220;5.134;2022-08-18T11:09:25;101594.91;;;24.22;100.00
60373;BME280;46216;52.220;5.134;2022-08-18T11:11:52;101601.22;;;24.38;100.00
60373;BME280;46216;52.220;5.134;2022-08-18T11:14:40;101594.09;;;24.14;100.00
60373;BME280;46216;52.220;5.134;2022-08-18T11:19:41;101583.97;;;24.45;100.00
60373;BME280;46216;52.220;5.134;2022-08-18T11:22:28;101564.09;;;24.60;100.00
60373;BME280;46216;52.220;5.134;2022-08-18T11:24:54;101583.47;;;24.65;100.00
60373;BME280;46216;52.220;5.134;2022-08-18T11:27:25;101588.59;;;24.45;100.00
60373;BME280;46216;52.220;5.134;2022-08-18T11:29:52;101577.53;;;24.46;100.00
60373;BME280;46216;52.220;5.134;2022-08-18T11:32:38;101582.22;;;24.52;100.00
60373;BME280;46216;52.220;5.134;2022-08-18T11:37:48;101587.59;;;24.61;100.00
60373;BME280;46216;52.220;5.134;2022-08-18T11:42:53;101576.44;;;24.70;100.00
60373;BME280;46216;52.220;5.134;2022-08-18T11:45:22;101572.94;;;24.91;100.00
60373;BME280;46216;52.220;5.134;2022-08-18T11:51:00;101559.56;;;24.96;100.00
60373;BME280;46216;52.220;5.134;2022-08-18T11:58:48;101572.06;;;24.61;100.00
60373;BME280;46216;52.220;5.134;2022-08-18T12:01:36;101569.19;;;24.63;100.00
60373;BME280;46216;52.220;5.134;2022-08-18T12:06:40;101565.13;;;24.59;100.00
60373;BME280;46216;52.220;5.134;2022-08-18T12:09:16;101562.97;;;24.69;100.00
60373;BME280;46216;52.220;5.134;2022-08-18T12:11:53;101560.53;;;24.74;100.00
60373;BME280;46216;52.220;5.134;2022-08-18T12:14:23;101557.81;;;25.04;100.00
60373;BME280;46216;52.220;5.134;2022-08-18T12:16:49;101551.56;;;25.39;100.00
60373;BME280;46216;52.220;5.134;2022-08-18T12:19:18;101549.44;;;25.20;100.00
60373;BME280;46216;52.220;5.134;2022-08-18T12:21:49;101561.75;;;25.16;100.00
60373;BME280;46216;52.220;5.134;2022-08-18T12:24:20;101548.34;;;25.14;100.00
60373;BME280;46216;52.220;5.134;2022-08-18T12:26:47;101540.78;;;25.01;100.00
60373;BME280;46216;52.220;5.134;2022-08-18T12:29:13;101534.19;;;24.96;100.00
60373;BME280;46216;52.220;5.134;2022-08-18T12:31:40;101527.97;;;25.17;100.00
60373;BME280;46216;52.220;5.134;2022-08-18T12:34:05;101528.16;;;25.30;100.00
60373;BME280;46216;52.220;5.134;2022-08-18T12:36:30;101542.84;;;24.99;100.00
60373;BME280;46216;52.220;5.134;2022-08-18T12:38:56;101546.34;;;24.93;100.00
60373;BME280;46216;52.220;5.134;2022-08-18T12:41:22;101544.44;;;24.79;100.00
60373;BME280;46216;52.220;5.134;2022-08-18T12:43:47;101531.38;;;24.74;100.00
60373;BME280;46216;52.220;5.134;2022-08-18T12:46:13;101539.38;;;24.76;100.00
60373;BME280;46216;52.220;5.134;2022-08-18T12:48:39;101545.56;;;24.99;100.00
60373;BME280;46216;52.220;5.134;2022-08-18T12:51:06;101522.81;;;25.07;100.00
60373;BME280;46216;52.220;5.134;2022-08-18T12:53:32;101531.19;;;25.06;100.00
60373;BME280;46216;52.220;5.134;2022-08-18T12:55:58;101529.13;;;25.08;100.00
60373;BME280;46216;52.220;5.134;2022-08-18T12:58:24;101529.69;;;24.88;100.00
60373;BME280;46216;52.220;5.134;2022-08-18T13:00:49;101528.94;;;24.94;100.00
60373;BME280;46216;52.220;5.134;2022-08-18T13:03:15;101532.22;;;25.05;100.00
60373;BME280;46216;52.220;5.134;2022-08-18T13:05:41;101540.88;;;25.08;100.00
60373;BME280;46216;52.220;5.134;2022-08-18T13:08:15;101537.94;;;25.10;100.00
60373;BME280;46216;52.220;5.134;2022-08-18T13:10:41;101546.81;;;25.12;100.00
60373;BME280;46216;52.220;5.134;2022-08-18T13:13:06;101536.25;;;25.09;100.00
60373;BME280;46216;52.220;5.134;2022-08-18T13:15:31;101532.47;;;25.10;100.00
60373;BME280;46216;52.220;5.134;2022-08-18T13:17:57;101534.56;;;25.22;100.00
60373;BME280;46216;52.220;5.134;2022-08-18T13:20:22;101527.28;;;25.44;100.00
60373;BME280;46216;52.220;5.134;2022-08-18T13:22:48;101523.50;;;25.45;100.00
60373;BME280;46216;52.220;5.134;2022-08-18T13:25:15;101520.25;;;25.35;100.00
60373;BME280;46216;52.220;5.134;2022-08-18T13:27:42;101519.72;;;25.25;100.00
60373;BME280;46216;52.220;5.134;2022-08-18T13:30:14;101526.84;;;25.26;100.00
60373;BME280;46216;52.220;5.134;2022-08-18T13:32:40;101524.78;;;25.28;100.00
60373;BME280;46216;52.220;5.134;2022-08-18T13:35:07;101533.22;;;25.33;100.00
60373;BME280;46216;52.220;5.134;2022-08-18T13:37:33;101548.38;;;25.36;100.00
60373;BME280;46216;52.220;5.134;2022-08-18T13:40:00;101551.38;;;25.41;100.00
60373;BME280;46216;52.220;5.134;2022-08-18T13:42:26;101553.84;;;25.36;100.00
60373;BME280;46216;52.220;5.134;2022-08-18T13:44:57;101551.78;;;25.38;100.00
60373;BME280;46216;52.220;5.134;2022-08-18T13:47:25;101559.97;;;25.38;100.00
60373;BME280;46216;52.220;5.134;2022-08-18T13:49:53;101557.72;;;25.63;100.00
60373;BME280;46216;52.220;5.134;2022-08-18T13:52:19;101543.28;;;25.69;100.00
60373;BME280;46216;52.220;5.134;2022-08-18T13:54:44;101546.88;;;25.69;100.00
60373;BME280;46216;52.220;5.134;2022-08-18T13:57:10;101556.81;;;25.77;100.00
60373;BME280;46216;52.220;5.134;2022-08-18T13:59:36;101547.16;;;25.96;100.00
60373;BME280;46216;52.220;5.134;2022-08-18T14:02:05;101550.72;;;26.18;100.00
60373;BME280;46216;52.220;5.134;2022-08-18T14:04:32;101544.81;;;26.42;100.00
60373;BME280;46216;52.220;5.134;2022-08-18T14:06:57;101542.25;;;26.62;100.00
60373;BME280;46216;52.220;5.134;2022-08-18T14:09:23;101539.81;;;26.46;100.00
60373;BME280;46216;52.220;5.134;2022-08-18T14:11:48;101546.91;;;26.40;100.00
60373;BME280;46216;52.220;5.134;2022-08-18T14:14:14;101532.72;;;26.52;100.00
60373;BME280;46216;52.220;5.134;2022-08-18T14:16:39;101542.84;;;26.58;100.00
60373;BME280;46216;52.220;5.134;2022-08-18T14:19:05;101538.94;;;26.46;100.00
60373;BME280;46216;52.220;5.134;2022-08-18T14:21:51;101533.34;;;26.26;100.00
60373;BME280;46216;52.220;5.134;2022-08-18T14:24:36;101519.38;;;26.14;100.00
60373;BME280;46216;52.220;5.134;2022-08-18T14:27:26;101531.00;;;26.01;100.00
60373;BME280;46216;52.220;5.134;2022-08-18T14:29:53;101533.06;;;25.92;100.00
60373;BME280;46216;52.220;5.134;2022-08-18T14:32:20;101539.69;;;25.83;100.00
60373;BME280;46216;52.220;5.134;2022-08-18T14:34:49;101540.44;;;25.77;100.00
60373;BME280;46216;52.220;5.134;2022-08-18T14:37:14;101551.88;;;25.66;100.00
60373;BME280;46216;52.220;5.134;2022-08-18T14:39:39;101541.00;;;25.51;100.00
60373;BME280;46216;52.220;5.134;2022-08-18T14:42:05;101551.84;;;25.44;100.00
60373;BME280;46216;52.220;5.134;2022-08-18T14:44:31;101553.00;;;25.35;100.00
60373;BME280;46216;52.220;5.134;2022-08-18T14:46:56;101549.06;;;25.23;100.00
60373;BME280;46216;52.220;5.134;2022-08-18T14:49:26;101546.81;;;25.12;100.00
60373;BME280;46216;52.220;5.134;2022-08-18T14:51:52;101538.81;;;25.10;100.00
60373;BME280;46216;52.220;5.134;2022-08-18T14:54:17;101547.16;;;25.09;100.00
60373;BME280;46216;52.220;5.134;2022-08-18T14:56:43;101543.38;;;25.10;100.00
60373;BME280;46216;52.220;5.134;2022-08-18T14:59:08;101540.41;;;25.05;100.00
60373;BME280;46216;52.220;5.134;2022-08-18T15:01:37;101535.22;;;25.10;100.00
60373;BME280;46216;52.220;5.134;2022-08-18T15:04:03;101530.63;;;25.25;100.00
60373;BME280;46216;52.220;5.134;2022-08-18T15:06:29;101508.97;;;25.09;100.00
60373;BME280;46216;52.220;5.134;2022-08-18T15:08:54;101518.31;;;25.51;100.00
60373;BME280;46216;52.220;5.134;2022-08-18T15:11:20;101512.50;;;25.97;100.00
60373;BME280;46216;52.220;5.134;2022-08-18T15:13:45;101508.69;;;26.19;100.00